VTBU

U-Tapao International Airport

Rayong, Thailand
TAF VTBU 160500Z 1606/1706 17008KT 9999 FEW020 BECMG 1611/1613 35004KT 7000
Issued Valid From Valid To
Dec-16 @ 05:00 UTC
(an hour ago)
Dec-16 @ 06:00 UTC
(12 minutes ago)
Dec-17 @ 06:00 UTC
(in 24 hours)
Dec-16 @ 06:00 to Dec-16 @ 11:00
TAF VTBU 160500Z 1606/1706 17008KT 9999 FEW020
Wind Visibility Clouds
170° at 8 knots 10,000+ meters
  • Few at 2,000' AGL
Becoming Dec-16 @ 11:00 to Dec-17 @ 06:00
BECMG 1611/1613 35004KT 7000
Wind Visibility Clouds
350° at 4 knots 7,001 meters
  • Few at 2,000' AGL
TAF VTBU 160500Z 1606/1706 17008KT 9999 FEW020 BECMG 1611/1613 35004KT 7000
Issued Dec-16 @ 05:00 UTC
(an hour ago)
Valid From Dec-16 @ 06:00 UTC
(12 minutes ago)
Valid To Dec-17 @ 06:00 UTC
(in 24 hours)
Dec-16 @ 06:00 - Dec-16 @ 11:00
Wind Visibility
170° at 8 knots 10,000+ meters
Clouds
  • Few at 2,000' AGL
Becoming Dec-16 @ 11:00 - Dec-17 @ 06:00
Wind Visibility
350° at 4 knots 7,001 meters
Clouds
  • Few at 2,000' AGL